sensor_id;sensor_type;location;lat;lon;timestamp;P1;durP1;ratioP1;P2;durP2;ratioP2
81821;SDS011;72257;52.384;4.882;2023-09-19T00:01:05;2.78;;;1.48;;
81821;SDS011;72257;52.384;4.882;2023-09-19T00:03:32;7.35;;;1.60;;
81821;SDS011;72257;52.384;4.882;2023-09-19T00:05:58;4.43;;;1.40;;
81821;SDS011;72257;52.384;4.882;2023-09-19T00:08:23;2.97;;;1.50;;
81821;SDS011;72257;52.384;4.882;2023-09-19T00:10:48;5.77;;;1.63;;
81821;SDS011;72257;52.384;4.882;2023-09-19T00:13:13;3.37;;;1.53;;
81821;SDS011;72257;52.384;4.882;2023-09-19T00:15:40;4.55;;;1.38;;
81821;SDS011;72257;52.384;4.882;2023-09-19T00:18:05;3.92;;;1.30;;
81821;SDS011;72257;52.384;4.882;2023-09-19T00:20:31;4.55;;;1.60;;
81821;SDS011;72257;52.384;4.882;2023-09-19T00:22:57;7.40;;;2.05;;
81821;SDS011;72257;52.384;4.882;2023-09-19T00:25:24;5.63;;;2.08;;
81821;SDS011;72257;52.384;4.882;2023-09-19T00:27:50;4.82;;;1.70;;
81821;SDS011;72257;52.384;4.882;2023-09-19T00:30:17;4.20;;;1.80;;
81821;SDS011;72257;52.384;4.882;2023-09-19T00:32:46;4.88;;;1.73;;
81821;SDS011;72257;52.384;4.882;2023-09-19T00:35:14;5.20;;;1.90;;
81821;SDS011;72257;52.384;4.882;2023-09-19T00:37:44;4.50;;;1.55;;
81821;SDS011;72257;52.384;4.882;2023-09-19T00:40:09;5.70;;;2.00;;
81821;SDS011;72257;52.384;4.882;2023-09-19T00:42:40;3.80;;;1.33;;
81821;SDS011;72257;52.384;4.882;2023-09-19T00:45:06;8.43;;;1.58;;
81821;SDS011;72257;52.384;4.882;2023-09-19T00:47:31;4.55;;;1.40;;
81821;SDS011;72257;52.384;4.882;2023-09-19T00:49:57;4.53;;;1.80;;
81821;SDS011;72257;52.384;4.882;2023-09-19T00:52:22;6.30;;;2.33;;
81821;SDS011;72257;52.384;4.882;2023-09-19T00:54:48;5.32;;;1.70;;
81821;SDS011;72257;52.384;4.882;2023-09-19T00:57:14;4.22;;;1.42;;
81821;SDS011;72257;52.384;4.882;2023-09-19T00:59:40;4.75;;;1.40;;
81821;SDS011;72257;52.384;4.882;2023-09-19T01:02:06;6.45;;;1.58;;
81821;SDS011;72257;52.384;4.882;2023-09-19T01:04:31;8.27;;;1.52;;
81821;SDS011;72257;52.384;4.882;2023-09-19T01:06:56;4.00;;;1.60;;
81821;SDS011;72257;52.384;4.882;2023-09-19T01:09:22;5.93;;;1.55;;
81821;SDS011;72257;52.384;4.882;2023-09-19T01:11:48;6.45;;;1.60;;
81821;SDS011;72257;52.384;4.882;2023-09-19T01:14:33;8.15;;;1.58;;
81821;SDS011;72257;52.384;4.882;2023-09-19T01:25:07;5.70;;;1.90;;
81821;SDS011;72257;52.384;4.882;2023-09-19T01:30:12;6.45;;;1.75;;
81821;SDS011;72257;52.384;4.882;2023-09-19T01:35:04;5.53;;;1.47;;
81821;SDS011;72257;52.384;4.882;2023-09-19T01:37:29;8.60;;;2.22;;
81821;SDS011;72257;52.384;4.882;2023-09-19T01:39:57;6.57;;;1.95;;
81821;SDS011;72257;52.384;4.882;2023-09-19T01:47:34;11.77;;;1.98;;
81821;SDS011;72257;52.384;4.882;2023-09-19T01:50:25;6.22;;;1.58;;
81821;SDS011;72257;52.384;4.882;2023-09-19T01:52:53;5.22;;;1.80;;
81821;SDS011;72257;52.384;4.882;2023-09-19T01:55:20;6.10;;;1.73;;
81821;SDS011;72257;52.384;4.882;2023-09-19T01:57:51;6.55;;;1.65;;
81821;SDS011;72257;52.384;4.882;2023-09-19T02:00:19;6.20;;;1.80;;
81821;SDS011;72257;52.384;4.882;2023-09-19T02:02:46;11.88;;;1.95;;
81821;SDS011;72257;52.384;4.882;2023-09-19T02:05:23;5.25;;;1.63;;
81821;SDS011;72257;52.384;4.882;2023-09-19T02:07:52;5.72;;;2.20;;
81821;SDS011;72257;52.384;4.882;2023-09-19T02:10:18;8.80;;;2.67;;
81821;SDS011;72257;52.384;4.882;2023-09-19T02:12:44;6.70;;;1.90;;
81821;SDS011;72257;52.384;4.882;2023-09-19T02:15:10;7.40;;;1.85;;
81821;SDS011;72257;52.384;4.882;2023-09-19T02:17:35;7.57;;;2.27;;
81821;SDS011;72257;52.384;4.882;2023-09-19T02:20:00;5.70;;;2.07;;
81821;SDS011;72257;52.384;4.882;2023-09-19T02:22:25;5.70;;;1.85;;
81821;SDS011;72257;52.384;4.882;2023-09-19T02:24:51;7.80;;;1.90;;
81821;SDS011;72257;52.384;4.882;2023-09-19T02:27:17;5.63;;;1.50;;
81821;SDS011;72257;52.384;4.882;2023-09-19T02:29:43;5.77;;;1.60;;
81821;SDS011;72257;52.384;4.882;2023-09-19T02:32:08;8.17;;;1.80;;
81821;SDS011;72257;52.384;4.882;2023-09-19T02:34:34;10.30;;;1.77;;
81821;SDS011;72257;52.384;4.882;2023-09-19T02:37:01;8.10;;;1.83;;
81821;SDS011;72257;52.384;4.882;2023-09-19T02:39:26;5.00;;;1.70;;
81821;SDS011;72257;52.384;4.882;2023-09-19T02:41:52;7.93;;;1.92;;
81821;SDS011;72257;52.384;4.882;2023-09-19T02:44:17;6.07;;;1.83;;
81821;SDS011;72257;52.384;4.882;2023-09-19T02:46:44;7.65;;;1.92;;
81821;SDS011;72257;52.384;4.882;2023-09-19T02:49:09;9.70;;;2.20;;
81821;SDS011;72257;52.384;4.882;2023-09-19T02:51:34;8.77;;;1.80;;
81821;SDS011;72257;52.384;4.882;2023-09-19T02:53:59;5.47;;;1.90;;
81821;SDS011;72257;52.384;4.882;2023-09-19T02:56:25;8.33;;;2.57;;
81821;SDS011;72257;52.384;4.882;2023-09-19T02:58:50;6.27;;;2.43;;
81821;SDS011;72257;52.384;4.882;2023-09-19T03:01:16;6.03;;;1.73;;
81821;SDS011;72257;52.384;4.882;2023-09-19T03:03:41;11.67;;;2.17;;
81821;SDS011;72257;52.384;4.882;2023-09-19T03:06:07;8.32;;;1.67;;
81821;SDS011;72257;52.384;4.882;2023-09-19T03:08:34;4.60;;;1.77;;
81821;SDS011;72257;52.384;4.882;2023-09-19T03:11:00;8.07;;;2.15;;
81821;SDS011;72257;52.384;4.882;2023-09-19T03:13:27;6.90;;;1.88;;
81821;SDS011;72257;52.384;4.882;2023-09-19T03:15:54;12.00;;;1.80;;
81821;SDS011;72257;52.384;4.882;2023-09-19T03:18:21;4.75;;;1.50;;
81821;SDS011;72257;52.384;4.882;2023-09-19T03:20:53;8.57;;;2.13;;
81821;SDS011;72257;52.384;4.882;2023-09-19T03:23:19;9.80;;;2.13;;
81821;SDS011;72257;52.384;4.882;2023-09-19T03:25:45;11.40;;;2.27;;
81821;SDS011;72257;52.384;4.882;2023-09-19T03:28:10;7.13;;;1.80;;
81821;SDS011;72257;52.384;4.882;2023-09-19T03:30:35;7.77;;;1.83;;
81821;SDS011;72257;52.384;4.882;2023-09-19T03:33:00;9.67;;;2.03;;
81821;SDS011;72257;52.384;4.882;2023-09-19T03:35:25;5.30;;;1.50;;
81821;SDS011;72257;52.384;4.882;2023-09-19T03:37:50;7.77;;;1.87;;
81821;SDS011;72257;52.384;4.882;2023-09-19T03:40:17;5.40;;;2.00;;
81821;SDS011;72257;52.384;4.882;2023-09-19T03:42:45;6.72;;;1.75;;
81821;SDS011;72257;52.384;4.882;2023-09-19T03:45:11;8.75;;;1.85;;
81821;SDS011;72257;52.384;4.882;2023-09-19T03:47:37;6.35;;;1.60;;
81821;SDS011;72257;52.384;4.882;2023-09-19T03:50:04;7.28;;;1.73;;
81821;SDS011;72257;52.384;4.882;2023-09-19T03:52:29;6.30;;;1.80;;
81821;SDS011;72257;52.384;4.882;2023-09-19T03:54:54;3.53;;;1.63;;
81821;SDS011;72257;52.384;4.882;2023-09-19T03:57:19;5.60;;;1.50;;
81821;SDS011;72257;52.384;4.882;2023-09-19T03:59:46;8.10;;;2.00;;
81821;SDS011;72257;52.384;4.882;2023-09-19T04:02:11;6.38;;;1.73;;
81821;SDS011;72257;52.384;4.882;2023-09-19T04:04:47;3.72;;;1.23;;
81821;SDS011;72257;52.384;4.882;2023-09-19T04:07:12;5.30;;;1.80;;
81821;SDS011;72257;52.384;4.882;2023-09-19T04:09:37;3.70;;;1.38;;
81821;SDS011;72257;52.384;4.882;2023-09-19T04:12:03;6.33;;;1.47;;
81821;SDS011;72257;52.384;4.882;2023-09-19T04:14:28;4.55;;;1.73;;
81821;SDS011;72257;52.384;4.882;2023-09-19T04:16:54;5.43;;;1.67;;
81821;SDS011;72257;52.384;4.882;2023-09-19T04:19:19;5.70;;;1.40;;
81821;SDS011;72257;52.384;4.882;2023-09-19T04:21:46;7.22;;;1.88;;
81821;SDS011;72257;52.384;4.882;2023-09-19T04:24:11;4.90;;;1.50;;
81821;SDS011;72257;52.384;4.882;2023-09-19T04:26:38;8.10;;;1.63;;
81821;SDS011;72257;52.384;4.882;2023-09-19T04:29:03;9.40;;;1.90;;
81821;SDS011;72257;52.384;4.882;2023-09-19T04:31:29;6.28;;;1.70;;
81821;SDS011;72257;52.384;4.882;2023-09-19T04:33:55;7.05;;;2.20;;
81821;SDS011;72257;52.384;4.882;2023-09-19T04:36:20;4.80;;;1.70;;
81821;SDS011;72257;52.384;4.882;2023-09-19T04:38:47;6.15;;;2.63;;
81821;SDS011;72257;52.384;4.882;2023-09-19T04:41:12;7.27;;;1.63;;
81821;SDS011;72257;52.384;4.882;2023-09-19T04:43:40;7.07;;;1.90;;
81821;SDS011;72257;52.384;4.882;2023-09-19T04:46:05;4.80;;;1.80;;
81821;SDS011;72257;52.384;4.882;2023-09-19T04:48:31;6.03;;;1.95;;
81821;SDS011;72257;52.384;4.882;2023-09-19T04:50:56;6.60;;;1.77;;
81821;SDS011;72257;52.384;4.882;2023-09-19T04:53:21;7.43;;;1.60;;
81821;SDS011;72257;52.384;4.882;2023-09-19T04:55:51;8.57;;;1.80;;
81821;SDS011;72257;52.384;4.882;2023-09-19T04:58:17;4.15;;;1.48;;
81821;SDS011;72257;52.384;4.882;2023-09-19T05:00:43;11.88;;;2.30;;
81821;SDS011;72257;52.384;4.882;2023-09-19T05:03:09;6.80;;;1.50;;
81821;SDS011;72257;52.384;4.882;2023-09-19T05:05:34;6.10;;;1.87;;
81821;SDS011;72257;52.384;4.882;2023-09-19T05:07:59;10.48;;;1.75;;
81821;SDS011;72257;52.384;4.882;2023-09-19T05:10:25;4.73;;;1.47;;
81821;SDS011;72257;52.384;4.882;2023-09-19T05:12:52;6.40;;;1.73;;
81821;SDS011;72257;52.384;4.882;2023-09-19T05:15:17;5.80;;;1.75;;
81821;SDS011;72257;52.384;4.882;2023-09-19T05:17:47;4.67;;;1.70;;
81821;SDS011;72257;52.384;4.882;2023-09-19T05:20:12;7.60;;;1.80;;
81821;SDS011;72257;52.384;4.882;2023-09-19T05:22:49;6.35;;;2.53;;
81821;SDS011;72257;52.384;4.882;2023-09-19T05:25:15;4.70;;;1.98;;
81821;SDS011;72257;52.384;4.882;2023-09-19T05:27:43;4.55;;;1.60;;
81821;SDS011;72257;52.384;4.882;2023-09-19T05:30:08;5.80;;;1.73;;
81821;SDS011;72257;52.384;4.882;2023-09-19T05:32:33;6.97;;;1.98;;
81821;SDS011;72257;52.384;4.882;2023-09-19T05:34:59;7.47;;;1.73;;
81821;SDS011;72257;52.384;4.882;2023-09-19T05:37:24;5.67;;;1.60;;
81821;SDS011;72257;52.384;4.882;2023-09-19T05:39:51;7.18;;;2.40;;
81821;SDS011;72257;52.384;4.882;2023-09-19T05:42:16;8.77;;;2.10;;
81821;SDS011;72257;52.384;4.882;2023-09-19T05:44:42;6.68;;;1.67;;
81821;SDS011;72257;52.384;4.882;2023-09-19T05:47:07;5.67;;;1.50;;
81821;SDS011;72257;52.384;4.882;2023-09-19T05:49:34;6.80;;;1.85;;
81821;SDS011;72257;52.384;4.882;2023-09-19T05:51:59;8.10;;;1.92;;
81821;SDS011;72257;52.384;4.882;2023-09-19T05:54:26;5.45;;;1.70;;
81821;SDS011;72257;52.384;4.882;2023-09-19T05:56:52;6.22;;;1.70;;
81821;SDS011;72257;52.384;4.882;2023-09-19T05:59:18;8.57;;;1.90;;
81821;SDS011;72257;52.384;4.882;2023-09-19T06:01:43;9.93;;;1.80;;
81821;SDS011;72257;52.384;4.882;2023-09-19T06:04:08;9.90;;;2.90;;
81821;SDS011;72257;52.384;4.882;2023-09-19T06:06:34;8.47;;;2.30;;
81821;SDS011;72257;52.384;4.882;2023-09-19T06:09:05;8.27;;;1.80;;
81821;SDS011;72257;52.384;4.882;2023-09-19T06:11:36;6.97;;;1.90;;
81821;SDS011;72257;52.384;4.882;2023-09-19T06:14:02;7.93;;;1.92;;
81821;SDS011;72257;52.384;4.882;2023-09-19T06:16:28;5.53;;;1.83;;
81821;SDS011;72257;52.384;4.882;2023-09-19T06:18:54;8.90;;;1.85;;
81821;SDS011;72257;52.384;4.882;2023-09-19T06:21:20;7.45;;;1.83;;
81821;SDS011;72257;52.384;4.882;2023-09-19T06:23:46;8.77;;;1.85;;
81821;SDS011;72257;52.384;4.882;2023-09-19T06:26:11;7.03;;;2.63;;
81821;SDS011;72257;52.384;4.882;2023-09-19T06:28:38;7.18;;;2.20;;
81821;SDS011;72257;52.384;4.882;2023-09-19T06:31:03;4.97;;;1.67;;
81821;SDS011;72257;52.384;4.882;2023-09-19T06:33:28;5.27;;;1.50;;
81821;SDS011;72257;52.384;4.882;2023-09-19T06:35:56;7.13;;;1.75;;
81821;SDS011;72257;52.384;4.882;2023-09-19T06:38:25;6.80;;;1.65;;
81821;SDS011;72257;52.384;4.882;2023-09-19T06:40:50;8.02;;;1.95;;
81821;SDS011;72257;52.384;4.882;2023-09-19T06:43:15;9.73;;;2.63;;
81821;SDS011;72257;52.384;4.882;2023-09-19T06:45:40;7.83;;;2.27;;
81821;SDS011;72257;52.384;4.882;2023-09-19T06:48:07;8.95;;;2.00;;
81821;SDS011;72257;52.384;4.882;2023-09-19T06:50:34;9.57;;;2.17;;
81821;SDS011;72257;52.384;4.882;2023-09-19T06:53:00;5.60;;;1.80;;
81821;SDS011;72257;52.384;4.882;2023-09-19T06:55:27;10.13;;;2.15;;
81821;SDS011;72257;52.384;4.882;2023-09-19T06:57:52;11.45;;;2.72;;
81821;SDS011;72257;52.384;4.882;2023-09-19T07:00:19;7.15;;;2.00;;
81821;SDS011;72257;52.384;4.882;2023-09-19T07:05:25;9.32;;;2.00;;
81821;SDS011;72257;52.384;4.882;2023-09-19T07:07:52;9.88;;;2.28;;
81821;SDS011;72257;52.384;4.882;2023-09-19T07:10:19;9.15;;;2.60;;
81821;SDS011;72257;52.384;4.882;2023-09-19T07:12:45;8.90;;;2.22;;
81821;SDS011;72257;52.384;4.882;2023-09-19T07:15:10;6.70;;;2.00;;
81821;SDS011;72257;52.384;4.882;2023-09-19T07:17:35;8.17;;;1.97;;
81821;SDS011;72257;52.384;4.882;2023-09-19T07:20:01;7.88;;;2.45;;
81821;SDS011;72257;52.384;4.882;2023-09-19T07:22:32;8.02;;;2.45;;
81821;SDS011;72257;52.384;4.882;2023-09-19T07:24:57;5.17;;;2.03;;
81821;SDS011;72257;52.384;4.882;2023-09-19T07:27:22;7.77;;;2.20;;
81821;SDS011;72257;52.384;4.882;2023-09-19T07:29:48;8.97;;;3.63;;
81821;SDS011;72257;52.384;4.882;2023-09-19T07:32:13;9.57;;;2.20;;
81821;SDS011;72257;52.384;4.882;2023-09-19T07:34:39;14.45;;;2.25;;
81821;SDS011;72257;52.384;4.882;2023-09-19T07:37:05;8.23;;;2.58;;
81821;SDS011;72257;52.384;4.882;2023-09-19T07:39:31;7.00;;;2.03;;
81821;SDS011;72257;52.384;4.882;2023-09-19T07:41:56;7.33;;;2.17;;
81821;SDS011;72257;52.384;4.882;2023-09-19T07:44:21;9.83;;;2.20;;
81821;SDS011;72257;52.384;4.882;2023-09-19T07:46:46;8.57;;;2.40;;
81821;SDS011;72257;52.384;4.882;2023-09-19T07:49:14;9.63;;;1.90;;
81821;SDS011;72257;52.384;4.882;2023-09-19T07:54:11;11.45;;;2.30;;
81821;SDS011;72257;52.384;4.882;2023-09-19T07:56:36;9.57;;;2.40;;
81821;SDS011;72257;52.384;4.882;2023-09-19T07:59:02;9.40;;;2.38;;
81821;SDS011;72257;52.384;4.882;2023-09-19T08:01:27;9.83;;;2.40;;
81821;SDS011;72257;52.384;4.882;2023-09-19T08:03:53;8.07;;;2.33;;
81821;SDS011;72257;52.384;4.882;2023-09-19T08:06:18;10.67;;;2.30;;
81821;SDS011;72257;52.384;4.882;2023-09-19T08:08:45;9.27;;;2.97;;
81821;SDS011;72257;52.384;4.882;2023-09-19T08:11:10;8.30;;;2.33;;
81821;SDS011;72257;52.384;4.882;2023-09-19T08:13:40;10.52;;;2.88;;
81821;SDS011;72257;52.384;4.882;2023-09-19T08:16:09;8.57;;;2.40;;
81821;SDS011;72257;52.384;4.882;2023-09-19T08:18:34;7.10;;;2.08;;
81821;SDS011;72257;52.384;4.882;2023-09-19T08:20:59;8.37;;;1.87;;
81821;SDS011;72257;52.384;4.882;2023-09-19T08:23:25;8.82;;;2.15;;
81821;SDS011;72257;52.384;4.882;2023-09-19T08:25:50;11.63;;;2.20;;
81821;SDS011;72257;52.384;4.882;2023-09-19T08:28:20;11.75;;;2.38;;
81821;SDS011;72257;52.384;4.882;2023-09-19T08:30:49;9.48;;;2.17;;
81821;SDS011;72257;52.384;4.882;2023-09-19T08:33:14;10.87;;;2.20;;
81821;SDS011;72257;52.384;4.882;2023-09-19T08:35:40;14.50;;;3.10;;
81821;SDS011;72257;52.384;4.882;2023-09-19T08:38:07;9.93;;;2.58;;
81821;SDS011;72257;52.384;4.882;2023-09-19T08:40:34;13.00;;;2.63;;
81821;SDS011;72257;52.384;4.882;2023-09-19T08:43:01;13.88;;;2.83;;
81821;SDS011;72257;52.384;4.882;2023-09-19T08:45:26;12.67;;;2.83;;
81821;SDS011;72257;52.384;4.882;2023-09-19T08:50:28;8.48;;;2.53;;
81821;SDS011;72257;52.384;4.882;2023-09-19T08:52:55;5.75;;;2.10;;
81821;SDS011;72257;52.384;4.882;2023-09-19T08:55:22;7.72;;;2.50;;
81821;SDS011;72257;52.384;4.882;2023-09-19T08:57:51;10.23;;;2.75;;
81821;SDS011;72257;52.384;4.882;2023-09-19T09:00:17;11.60;;;2.40;;
81821;SDS011;72257;52.384;4.882;2023-09-19T09:02:43;11.57;;;2.28;;
81821;SDS011;72257;52.384;4.882;2023-09-19T09:05:09;6.30;;;2.13;;
81821;SDS011;72257;52.384;4.882;2023-09-19T09:07:35;9.82;;;2.25;;
81821;SDS011;72257;52.384;4.882;2023-09-19T09:10:04;11.98;;;2.60;;
81821;SDS011;72257;52.384;4.882;2023-09-19T09:12:30;11.95;;;3.05;;
81821;SDS011;72257;52.384;4.882;2023-09-19T09:14:55;10.93;;;2.60;;
81821;SDS011;72257;52.384;4.882;2023-09-19T09:17:22;11.77;;;3.13;;
81821;SDS011;72257;52.384;4.882;2023-09-19T09:19:47;7.30;;;2.63;;
81821;SDS011;72257;52.384;4.882;2023-09-19T09:22:13;9.00;;;2.60;;
81821;SDS011;72257;52.384;4.882;2023-09-19T09:24:51;11.23;;;2.08;;
81821;SDS011;72257;52.384;4.882;2023-09-19T09:27:18;9.77;;;2.63;;
81821;SDS011;72257;52.384;4.882;2023-09-19T09:29:47;9.93;;;2.70;;
81821;SDS011;72257;52.384;4.882;2023-09-19T09:34:43;5.35;;;2.33;;
81821;SDS011;72257;52.384;4.882;2023-09-19T09:37:12;9.57;;;3.33;;
81821;SDS011;72257;52.384;4.882;2023-09-19T09:39:40;9.75;;;3.10;;
81821;SDS011;72257;52.384;4.882;2023-09-19T09:42:05;5.93;;;2.37;;
81821;SDS011;72257;52.384;4.882;2023-09-19T09:44:31;10.88;;;2.55;;
81821;SDS011;72257;52.384;4.882;2023-09-19T09:46:57;13.48;;;2.63;;
81821;SDS011;72257;52.384;4.882;2023-09-19T09:49:42;8.77;;;3.40;;
81821;SDS011;72257;52.384;4.882;2023-09-19T09:52:19;10.52;;;3.25;;
81821;SDS011;72257;52.384;4.882;2023-09-19T09:54:58;13.25;;;3.17;;
81821;SDS011;72257;52.384;4.882;2023-09-19T09:57:23;7.45;;;2.80;;
81821;SDS011;72257;52.384;4.882;2023-09-19T09:59:57;9.98;;;2.47;;
81821;SDS011;72257;52.384;4.882;2023-09-19T10:02:41;11.20;;;2.63;;
81821;SDS011;72257;52.384;4.882;2023-09-19T10:05:13;10.98;;;3.10;;
81821;SDS011;72257;52.384;4.882;2023-09-19T10:07:45;10.45;;;3.47;;
81821;SDS011;72257;52.384;4.882;2023-09-19T10:10:37;6.15;;;2.60;;
81821;SDS011;72257;52.384;4.882;2023-09-19T10:13:09;6.63;;;2.70;;
81821;SDS011;72257;52.384;4.882;2023-09-19T10:15:37;7.90;;;2.65;;
81821;SDS011;72257;52.384;4.882;2023-09-19T10:18:06;8.95;;;2.45;;
81821;SDS011;72257;52.384;4.882;2023-09-19T10:20:33;9.15;;;3.08;;
81821;SDS011;72257;52.384;4.882;2023-09-19T10:23:06;9.77;;;2.28;;
81821;SDS011;72257;52.384;4.882;2023-09-19T10:25:36;10.30;;;2.60;;
81821;SDS011;72257;52.384;4.882;2023-09-19T10:28:02;12.20;;;3.25;;
81821;SDS011;72257;52.384;4.882;2023-09-19T10:30:31;9.10;;;2.20;;
81821;SDS011;72257;52.384;4.882;2023-09-19T10:33:03;10.77;;;2.33;;
81821;SDS011;72257;52.384;4.882;2023-09-19T10:35:29;7.68;;;2.50;;
81821;SDS011;72257;52.384;4.882;2023-09-19T10:37:54;10.45;;;2.45;;
81821;SDS011;72257;52.384;4.882;2023-09-19T10:40:21;7.90;;;2.60;;
81821;SDS011;72257;52.384;4.882;2023-09-19T10:42:51;10.45;;;2.88;;
81821;SDS011;72257;52.384;4.882;2023-09-19T10:45:18;7.80;;;2.38;;
81821;SDS011;72257;52.384;4.882;2023-09-19T10:47:45;6.43;;;2.38;;
81821;SDS011;72257;52.384;4.882;2023-09-19T10:50:19;10.77;;;2.60;;
81821;SDS011;72257;52.384;4.882;2023-09-19T10:52:46;6.15;;;2.00;;
81821;SDS011;72257;52.384;4.882;2023-09-19T10:55:15;5.15;;;2.28;;
81821;SDS011;72257;52.384;4.882;2023-09-19T11:00:09;5.45;;;2.10;;
81821;SDS011;72257;52.384;4.882;2023-09-19T11:06:07;5.80;;;1.77;;
81821;SDS011;72257;52.384;4.882;2023-09-19T11:08:55;6.20;;;2.33;;
81821;SDS011;72257;52.384;4.882;2023-09-19T11:14:13;8.18;;;2.20;;
81821;SDS011;72257;52.384;4.882;2023-09-19T11:16:39;10.88;;;3.25;;
81821;SDS011;72257;52.384;4.882;2023-09-19T11:19:04;8.00;;;2.70;;
81821;SDS011;72257;52.384;4.882;2023-09-19T11:26:41;6.30;;;2.30;;
81821;SDS011;72257;52.384;4.882;2023-09-19T11:29:25;5.35;;;3.38;;
81821;SDS011;72257;52.384;4.882;2023-09-19T11:31:51;5.20;;;1.80;;
81821;SDS011;72257;52.384;4.882;2023-09-19T11:37:00;4.03;;;2.03;;
81821;SDS011;72257;52.384;4.882;2023-09-19T11:39:26;5.82;;;1.98;;
81821;SDS011;72257;52.384;4.882;2023-09-19T11:41:52;7.03;;;2.20;;
81821;SDS011;72257;52.384;4.882;2023-09-19T11:46:55;3.13;;;1.60;;
81821;SDS011;72257;52.384;4.882;2023-09-19T11:49:27;4.82;;;1.73;;
81821;SDS011;72257;52.384;4.882;2023-09-19T11:51:55;6.80;;;1.80;;
81821;SDS011;72257;52.384;4.882;2023-09-19T11:54:20;6.35;;;1.95;;
81821;SDS011;72257;52.384;4.882;2023-09-19T11:56:53;4.88;;;2.20;;
81821;SDS011;72257;52.384;4.882;2023-09-19T11:59:26;7.18;;;1.95;;
81821;SDS011;72257;52.384;4.882;2023-09-19T12:02:01;4.93;;;1.50;;
81821;SDS011;72257;52.384;4.882;2023-09-19T12:06:57;4.68;;;2.13;;
81821;SDS011;72257;52.384;4.882;2023-09-19T12:09:23;6.68;;;1.73;;
81821;SDS011;72257;52.384;4.882;2023-09-19T12:11:50;8.60;;;2.00;;
81821;SDS011;72257;52.384;4.882;2023-09-19T12:14:22;5.07;;;1.73;;
81821;SDS011;72257;52.384;4.882;2023-09-19T12:16:56;4.28;;;1.88;;
81821;SDS011;72257;52.384;4.882;2023-09-19T12:19:22;6.40;;;1.90;;
81821;SDS011;72257;52.384;4.882;2023-09-19T12:21:55;5.72;;;1.95;;
81821;SDS011;72257;52.384;4.882;2023-09-19T12:24:22;3.75;;;1.55;;
81821;SDS011;72257;52.384;4.882;2023-09-19T12:26:48;5.77;;;1.57;;
81821;SDS011;72257;52.384;4.882;2023-09-19T12:29:18;5.68;;;1.95;;
81821;SDS011;72257;52.384;4.882;2023-09-19T12:32:17;5.60;;;1.50;;
81821;SDS011;72257;52.384;4.882;2023-09-19T12:34:35;4.95;;;2.10;;
81821;SDS011;72257;52.384;4.882;2023-09-19T12:37:14;4.68;;;1.70;;
81821;SDS011;72257;52.384;4.882;2023-09-19T12:39:46;3.10;;;1.70;;
81821;SDS011;72257;52.384;4.882;2023-09-19T12:42:14;8.43;;;1.83;;
81821;SDS011;72257;52.384;4.882;2023-09-19T12:44:40;4.95;;;1.98;;
81821;SDS011;72257;52.384;4.882;2023-09-19T12:47:10;3.90;;;1.98;;
81821;SDS011;72257;52.384;4.882;2023-09-19T12:49:36;6.82;;;2.00;;
81821;SDS011;72257;52.384;4.882;2023-09-19T12:52:01;7.30;;;2.20;;
81821;SDS011;72257;52.384;4.882;2023-09-19T12:54:37;5.50;;;1.70;;
81821;SDS011;72257;52.384;4.882;2023-09-19T12:57:03;9.02;;;2.00;;
81821;SDS011;72257;52.384;4.882;2023-09-19T12:59:30;6.78;;;2.38;;
81821;SDS011;72257;52.384;4.882;2023-09-19T13:02:04;6.80;;;2.15;;
81821;SDS011;72257;52.384;4.882;2023-09-19T13:04:32;5.45;;;2.33;;
81821;SDS011;72257;52.384;4.882;2023-09-19T13:06:59;6.90;;;2.15;;
81821;SDS011;72257;52.384;4.882;2023-09-19T13:09:26;5.75;;;2.00;;
81821;SDS011;72257;52.384;4.882;2023-09-19T13:11:59;8.13;;;2.10;;
81821;SDS011;72257;52.384;4.882;2023-09-19T13:14:27;8.55;;;2.20;;
81821;SDS011;72257;52.384;4.882;2023-09-19T13:17:03;8.20;;;2.00;;
81821;SDS011;72257;52.384;4.882;2023-09-19T13:19:41;5.55;;;2.13;;
81821;SDS011;72257;52.384;4.882;2023-09-19T13:24:56;4.72;;;1.70;;
81821;SDS011;72257;52.384;4.882;2023-09-19T13:27:23;4.88;;;2.08;;
81821;SDS011;72257;52.384;4.882;2023-09-19T13:29:48;5.13;;;1.83;;
81821;SDS011;72257;52.384;4.882;2023-09-19T13:32:13;4.77;;;2.43;;
81821;SDS011;72257;52.384;4.882;2023-09-19T13:34:39;7.20;;;2.40;;
81821;SDS011;72257;52.384;4.882;2023-09-19T13:37:04;7.33;;;2.53;;
81821;SDS011;72257;52.384;4.882;2023-09-19T13:39:29;7.68;;;2.00;;
81821;SDS011;72257;52.384;4.882;2023-09-19T13:41:54;5.87;;;2.03;;
81821;SDS011;72257;52.384;4.882;2023-09-19T13:44:20;5.73;;;2.33;;
81821;SDS011;72257;52.384;4.882;2023-09-19T13:46:45;5.80;;;2.10;;
81821;SDS011;72257;52.384;4.882;2023-09-19T13:49:10;3.22;;;1.90;;
81821;SDS011;72257;52.384;4.882;2023-09-19T13:51:36;6.82;;;2.10;;
81821;SDS011;72257;52.384;4.882;2023-09-19T13:54:02;6.38;;;2.03;;
81821;SDS011;72257;52.384;4.882;2023-09-19T13:56:27;3.90;;;1.70;;
81821;SDS011;72257;52.384;4.882;2023-09-19T13:58:57;8.05;;;2.22;;
81821;SDS011;72257;52.384;4.882;2023-09-19T14:01:22;4.93;;;2.30;;
81821;SDS011;72257;52.384;4.882;2023-09-19T14:03:47;7.60;;;2.80;;
81821;SDS011;72257;52.384;4.882;2023-09-19T14:06:15;7.85;;;2.55;;
81821;SDS011;72257;52.384;4.882;2023-09-19T14:08:40;7.40;;;2.78;;
81821;SDS011;72257;52.384;4.882;2023-09-19T14:11:06;7.95;;;2.60;;
81821;SDS011;72257;52.384;4.882;2023-09-19T14:13:31;8.45;;;2.58;;
81821;SDS011;72257;52.384;4.882;2023-09-19T14:15:56;6.73;;;2.50;;
81821;SDS011;72257;52.384;4.882;2023-09-19T14:18:22;8.93;;;3.20;;
81821;SDS011;72257;52.384;4.882;2023-09-19T14:20:47;8.87;;;2.63;;
81821;SDS011;72257;52.384;4.882;2023-09-19T14:23:12;9.00;;;2.60;;
81821;SDS011;72257;52.384;4.882;2023-09-19T14:25:37;7.37;;;2.73;;
81821;SDS011;72257;52.384;4.882;2023-09-19T14:28:04;6.65;;;2.60;;
81821;SDS011;72257;52.384;4.882;2023-09-19T14:30:29;6.45;;;2.50;;
81821;SDS011;72257;52.384;4.882;2023-09-19T14:32:54;9.50;;;3.83;;
81821;SDS011;72257;52.384;4.882;2023-09-19T14:35:19;8.73;;;2.80;;
81821;SDS011;72257;52.384;4.882;2023-09-19T14:37:44;8.13;;;2.33;;
81821;SDS011;72257;52.384;4.882;2023-09-19T14:40:10;6.65;;;2.30;;
81821;SDS011;72257;52.384;4.882;2023-09-19T14:42:38;7.57;;;2.63;;
81821;SDS011;72257;52.384;4.882;2023-09-19T14:45:03;8.38;;;3.05;;
81821;SDS011;72257;52.384;4.882;2023-09-19T14:47:30;9.75;;;2.53;;
81821;SDS011;72257;52.384;4.882;2023-09-19T14:49:56;9.93;;;2.78;;
81821;SDS011;72257;52.384;4.882;2023-09-19T14:52:23;11.13;;;2.75;;
81821;SDS011;72257;52.384;4.882;2023-09-19T14:54:48;6.30;;;1.93;;
81821;SDS011;72257;52.384;4.882;2023-09-19T14:57:13;9.57;;;2.37;;
81821;SDS011;72257;52.384;4.882;2023-09-19T14:59:39;8.88;;;3.17;;
81821;SDS011;72257;52.384;4.882;2023-09-19T15:02:05;8.40;;;2.40;;
81821;SDS011;72257;52.384;4.882;2023-09-19T15:04:30;11.15;;;2.90;;
81821;SDS011;72257;52.384;4.882;2023-09-19T15:06:55;6.17;;;2.50;;
81821;SDS011;72257;52.384;4.882;2023-09-19T15:09:21;8.10;;;2.20;;
81821;SDS011;72257;52.384;4.882;2023-09-19T15:11:54;7.05;;;2.63;;
81821;SDS011;72257;52.384;4.882;2023-09-19T15:14:20;12.32;;;2.65;;
81821;SDS011;72257;52.384;4.882;2023-09-19T15:16:46;12.55;;;2.85;;
81821;SDS011;72257;52.384;4.882;2023-09-19T15:19:11;7.30;;;2.38;;
81821;SDS011;72257;52.384;4.882;2023-09-19T15:21:36;8.83;;;2.27;;
81821;SDS011;72257;52.384;4.882;2023-09-19T15:24:05;10.93;;;2.95;;
81821;SDS011;72257;52.384;4.882;2023-09-19T15:26:30;10.00;;;3.40;;
81821;SDS011;72257;52.384;4.882;2023-09-19T15:28:56;9.27;;;2.97;;
81821;SDS011;72257;52.384;4.882;2023-09-19T15:31:21;7.60;;;2.80;;
81821;SDS011;72257;52.384;4.882;2023-09-19T15:33:46;9.50;;;3.37;;
81821;SDS011;72257;52.384;4.882;2023-09-19T15:36:12;7.60;;;2.67;;
81821;SDS011;72257;52.384;4.882;2023-09-19T15:41:15;8.82;;;2.92;;